Metar z połowy godziny Komunikat METAR ze strony awiacja.imgw.pl Metar G30 EPWA METAR EPWA 231230Z 17006KT 130V190 CAVOK 21/07 Q1012 NOSIG=